createdAt,value
2019-02-19T00:06:54.176Z,2.21
2019-02-19T00:21:57.865Z,2.29
2019-02-19T00:37:01.564Z,2.15
2019-02-19T00:52:05.175Z,1.22
2019-02-19T01:07:08.870Z,1.54
2019-02-19T01:22:12.474Z,1.54
2019-02-19T01:37:16.176Z,0.82
2019-02-19T01:52:19.815Z,1.21
2019-02-19T02:07:23.439Z,1.32
2019-02-19T02:22:27.070Z,1.19
2019-02-19T02:37:30.774Z,1.20
2019-02-19T02:52:34.466Z,0.57
2019-02-19T03:07:42.667Z,0.70
2019-02-19T03:22:46.377Z,0.52
2019-02-19T03:37:50.073Z,0.22
2019-02-19T03:52:53.785Z,-0.42
2019-02-19T04:07:57.477Z,-0.16
2019-02-19T04:23:01.104Z,-0.29
2019-02-19T04:38:04.774Z,-0.33
2019-02-19T04:53:08.478Z,0.51
2019-02-19T05:08:12.173Z,0.15
2019-02-19T05:23:15.871Z,0.42
2019-02-19T05:38:19.582Z,0.90
2019-02-19T05:53:23.209Z,0.71
2019-02-19T06:08:26.887Z,0.79
2019-02-19T06:23:30.584Z,1.13
2019-02-19T06:38:34.287Z,1.69
2019-02-19T06:53:37.996Z,2.34
2019-02-19T07:08:41.709Z,3.09
2019-02-19T07:23:45.392Z,5.43
2019-02-19T07:38:48.995Z,7.25
2019-02-19T07:53:52.600Z,11.05
2019-02-19T08:08:56.296Z,11.05
2019-02-19T08:23:59.989Z,12.43
2019-02-19T08:39:05.129Z,12.76
2019-02-19T08:54:08.774Z,13.33
2019-02-19T09:09:12.523Z,13.01
2019-02-19T09:24:16.218Z,12.27
2019-02-19T09:39:19.928Z,13.46
2019-02-19T09:54:23.638Z,13.55
2019-02-19T10:09:27.253Z,15.51
2019-02-19T10:24:30.939Z,15.91
2019-02-19T10:39:34.732Z,16.72
2019-02-19T10:54:38.437Z,15.40
2019-02-19T11:09:42.132Z,17.18
2019-02-19T11:24:45.953Z,16.72
2019-02-19T11:39:49.638Z,17.03
2019-02-19T11:54:53.259Z,19.05
2019-02-19T12:09:56.941Z,16.41
2019-02-19T12:25:00.636Z,16.87
2019-02-19T12:40:07.323Z,15.79
2019-02-19T12:55:11.312Z,16.07
2019-02-19T13:10:15.026Z,15.07
2019-02-19T13:25:18.728Z,15.35
2019-02-19T13:40:22.443Z,14.95
2019-02-19T13:55:27.665Z,14.06
2019-02-19T14:10:31.287Z,13.77
2019-02-19T14:25:36.499Z,13.37
2019-02-19T14:40:58.240Z,13.10
2019-02-19T14:56:19.632Z,13.53
2019-02-19T15:11:36.659Z,12.79
2019-02-19T15:26:47.942Z,11.87
2019-02-19T15:41:59.004Z,11.61
2019-02-19T15:57:13.376Z,11.13
2019-02-19T16:12:24.532Z,10.39
2019-02-19T16:27:38.611Z,9.50
2019-02-19T16:42:52.617Z,9.44
2019-02-19T16:57:57.857Z,9.26
2019-02-19T17:13:12.309Z,9.09
2019-02-19T17:28:29.413Z,8.80
2019-02-19T17:43:34.671Z,8.81
2019-02-19T17:58:42.745Z,8.78
2019-02-19T18:13:54.152Z,8.87
2019-02-19T18:29:00.207Z,8.38
2019-02-19T18:44:04.823Z,8.50
2019-02-19T18:59:08.628Z,8.84
2019-02-19T19:14:12.446Z,8.78
2019-02-19T19:29:17.736Z,8.30
2019-02-19T19:44:21.447Z,7.13
2019-02-19T19:59:25.378Z,6.98
2019-02-19T20:14:29.215Z,6.91
2019-02-19T20:29:32.914Z,6.33
2019-02-19T20:44:37.421Z,6.19
2019-02-19T20:59:41.395Z,6.12
2019-02-19T21:14:45.343Z,6.14
2019-02-19T21:29:49.141Z,6.26
2019-02-19T21:44:52.930Z,6.31
2019-02-19T21:59:56.625Z,5.96
2019-02-19T22:15:00.347Z,5.63
2019-02-19T22:30:05.193Z,5.22
2019-02-19T22:45:09.615Z,5.14
2019-02-19T23:00:28.328Z,4.82
2019-02-19T23:15:32.032Z,4.78
2019-02-19T23:30:35.836Z,4.57
2019-02-19T23:45:39.460Z,4.38
